sensor_id;sensor_type;location;lat;lon;timestamp;temperature;humidity
61979;DHT22;47938;48.176;16.414;2023-02-24T00:02:01;9.60;91.90
61979;DHT22;47938;48.176;16.414;2023-02-24T00:04:37;9.60;91.90
61979;DHT22;47938;48.176;16.414;2023-02-24T00:07:03;9.70;91.80
61979;DHT22;47938;48.176;16.414;2023-02-24T00:09:30;9.60;91.80
61979;DHT22;47938;48.176;16.414;2023-02-24T00:12:05;9.60;92.00
61979;DHT22;47938;48.176;16.414;2023-02-24T00:14:34;9.60;91.90
61979;DHT22;47938;48.176;16.414;2023-02-24T00:17:00;9.60;92.20
61979;DHT22;47938;48.176;16.414;2023-02-24T00:19:28;9.50;93.00
61979;DHT22;47938;48.176;16.414;2023-02-24T00:21:54;9.50;93.00
61979;DHT22;47938;48.176;16.414;2023-02-24T00:24:26;9.50;93.00
61979;DHT22;47938;48.176;16.414;2023-02-24T00:26:54;9.50;93.20
61979;DHT22;47938;48.176;16.414;2023-02-24T00:29:20;9.50;93.80
61979;DHT22;47938;48.176;16.414;2023-02-24T00:31:52;9.50;94.20
61979;DHT22;47938;48.176;16.414;2023-02-24T00:34:18;9.50;94.70
61979;DHT22;47938;48.176;16.414;2023-02-24T00:36:43;9.50;94.90
61979;DHT22;47938;48.176;16.414;2023-02-24T00:39:10;9.40;95.30
61979;DHT22;47938;48.176;16.414;2023-02-24T00:41:38;9.40;95.80
61979;DHT22;47938;48.176;16.414;2023-02-24T00:44:06;9.40;96.00
61979;DHT22;47938;48.176;16.414;2023-02-24T00:46:40;9.40;96.40
61979;DHT22;47938;48.176;16.414;2023-02-24T00:49:10;9.40;96.80
61979;DHT22;47938;48.176;16.414;2023-02-24T00:51:39;9.40;97.10
61979;DHT22;47938;48.176;16.414;2023-02-24T00:54:08;9.40;97.70
61979;DHT22;47938;48.176;16.414;2023-02-24T00:56:33;9.30;98.80
61979;DHT22;47938;48.176;16.414;2023-02-24T00:59:00;9.30;99.10
61979;DHT22;47938;48.176;16.414;2023-02-24T01:01:29;9.20;99.20
61979;DHT22;47938;48.176;16.414;2023-02-24T01:03:55;9.30;99.20
61979;DHT22;47938;48.176;16.414;2023-02-24T01:06:23;9.30;99.00
61979;DHT22;47938;48.176;16.414;2023-02-24T01:08:51;9.20;99.30
61979;DHT22;47938;48.176;16.414;2023-02-24T01:11:20;9.10;99.80
61979;DHT22;47938;48.176;16.414;2023-02-24T01:13:45;9.10;99.90
61979;DHT22;47938;48.176;16.414;2023-02-24T01:16:12;9.10;99.90
61979;DHT22;47938;48.176;16.414;2023-02-24T01:18:37;9.10;99.90
61979;DHT22;47938;48.176;16.414;2023-02-24T01:21:03;9.10;99.90
61979;DHT22;47938;48.176;16.414;2023-02-24T01:23:29;9.10;99.90
61979;DHT22;47938;48.176;16.414;2023-02-24T01:25:54;9.10;99.50
61979;DHT22;47938;48.176;16.414;2023-02-24T01:28:20;9.10;99.40
61979;DHT22;47938;48.176;16.414;2023-02-24T01:30:46;9.10;99.10
61979;DHT22;47938;48.176;16.414;2023-02-24T01:33:11;9.00;99.00
61979;DHT22;47938;48.176;16.414;2023-02-24T01:35:37;9.00;99.50
61979;DHT22;47938;48.176;16.414;2023-02-24T01:38:02;9.00;99.20
61979;DHT22;47938;48.176;16.414;2023-02-24T01:40:28;9.00;99.50
61979;DHT22;47938;48.176;16.414;2023-02-24T01:42:54;8.90;99.60
61979;DHT22;47938;48.176;16.414;2023-02-24T01:45:23;9.00;99.30
61979;DHT22;47938;48.176;16.414;2023-02-24T01:47:49;9.00;99.00
61979;DHT22;47938;48.176;16.414;2023-02-24T01:50:17;9.00;98.90
61979;DHT22;47938;48.176;16.414;2023-02-24T01:52:46;9.00;98.30
61979;DHT22;47938;48.176;16.414;2023-02-24T01:55:19;9.00;98.30
61979;DHT22;47938;48.176;16.414;2023-02-24T01:57:46;9.00;98.60
61979;DHT22;47938;48.176;16.414;2023-02-24T02:00:14;9.00;98.00
61979;DHT22;47938;48.176;16.414;2023-02-24T02:02:43;9.00;98.80
61979;DHT22;47938;48.176;16.414;2023-02-24T02:05:09;9.00;97.90
61979;DHT22;47938;48.176;16.414;2023-02-24T02:07:37;9.00;97.70
61979;DHT22;47938;48.176;16.414;2023-02-24T02:10:05;9.00;97.90
61979;DHT22;47938;48.176;16.414;2023-02-24T02:12:35;9.00;97.90
61979;DHT22;47938;48.176;16.414;2023-02-24T02:15:03;9.00;98.00
61979;DHT22;47938;48.176;16.414;2023-02-24T02:23:59;9.00;98.00
61979;DHT22;47938;48.176;16.414;2023-02-24T02:37:22;9.00;97.60
61979;DHT22;47938;48.176;16.414;2023-02-24T02:40:12;9.00;97.70
61979;DHT22;47938;48.176;16.414;2023-02-24T02:42:58;9.00;97.70
61979;DHT22;47938;48.176;16.414;2023-02-24T02:45:39;9.00;97.80
61979;DHT22;47938;48.176;16.414;2023-02-24T02:48:14;9.00;98.10
61979;DHT22;47938;48.176;16.414;2023-02-24T02:50:48;8.90;98.90
61979;DHT22;47938;48.176;16.414;2023-02-24T02:53:25;8.90;98.90
61979;DHT22;47938;48.176;16.414;2023-02-24T02:56:17;8.90;98.70
61979;DHT22;47938;48.176;16.414;2023-02-24T02:58:47;8.80;99.70
61979;DHT22;47938;48.176;16.414;2023-02-24T03:01:18;8.70;99.90
61979;DHT22;47938;48.176;16.414;2023-02-24T03:03:52;8.70;99.90
61979;DHT22;47938;48.176;16.414;2023-02-24T03:06:39;8.60;99.90
61979;DHT22;47938;48.176;16.414;2023-02-24T03:09:15;8.50;99.90
61979;DHT22;47938;48.176;16.414;2023-02-24T03:11:46;8.50;99.90
61979;DHT22;47938;48.176;16.414;2023-02-24T03:14:15;8.50;99.90
61979;DHT22;47938;48.176;16.414;2023-02-24T03:16:44;8.40;99.90
61979;DHT22;47938;48.176;16.414;2023-02-24T03:19:14;8.30;99.90
61979;DHT22;47938;48.176;16.414;2023-02-24T03:21:46;8.20;99.90
61979;DHT22;47938;48.176;16.414;2023-02-24T03:24:14;8.20;99.90
61979;DHT22;47938;48.176;16.414;2023-02-24T03:26:46;8.20;99.90
61979;DHT22;47938;48.176;16.414;2023-02-24T03:29:27;8.10;99.90
61979;DHT22;47938;48.176;16.414;2023-02-24T03:36:59;8.10;99.90
61979;DHT22;47938;48.176;16.414;2023-02-24T03:39:25;8.10;99.90
61979;DHT22;47938;48.176;16.414;2023-02-24T03:42:04;8.10;99.90
61979;DHT22;47938;48.176;16.414;2023-02-24T03:44:31;8.00;99.90
61979;DHT22;47938;48.176;16.414;2023-02-24T03:46:57;8.00;99.90
61979;DHT22;47938;48.176;16.414;2023-02-24T03:49:26;8.10;99.90
61979;DHT22;47938;48.176;16.414;2023-02-24T04:04:02;8.30;99.90
61979;DHT22;47938;48.176;16.414;2023-02-24T04:06:50;8.30;99.90
61979;DHT22;47938;48.176;16.414;2023-02-24T04:09:33;8.40;99.90
61979;DHT22;47938;48.176;16.414;2023-02-24T04:14:46;8.40;99.90
61979;DHT22;47938;48.176;16.414;2023-02-24T04:19:46;8.50;99.90
61979;DHT22;47938;48.176;16.414;2023-02-24T04:22:15;8.50;99.90
61979;DHT22;47938;48.176;16.414;2023-02-24T04:24:43;8.50;99.90
61979;DHT22;47938;48.176;16.414;2023-02-24T04:27:12;8.50;99.90
61979;DHT22;47938;48.176;16.414;2023-02-24T04:29:42;8.50;99.90
61979;DHT22;47938;48.176;16.414;2023-02-24T04:32:10;8.40;99.90
61979;DHT22;47938;48.176;16.414;2023-02-24T04:34:38;8.50;99.90
61979;DHT22;47938;48.176;16.414;2023-02-24T04:37:04;8.40;99.90
61979;DHT22;47938;48.176;16.414;2023-02-24T04:39:30;8.40;99.90
61979;DHT22;47938;48.176;16.414;2023-02-24T04:41:57;8.40;99.90
61979;DHT22;47938;48.176;16.414;2023-02-24T04:44:23;8.40;99.90
61979;DHT22;47938;48.176;16.414;2023-02-24T04:46:49;8.50;99.90
61979;DHT22;47938;48.176;16.414;2023-02-24T04:49:16;8.50;99.90
61979;DHT22;47938;48.176;16.414;2023-02-24T04:51:43;8.40;99.90
61979;DHT22;47938;48.176;16.414;2023-02-24T04:54:10;8.40;99.90
61979;DHT22;47938;48.176;16.414;2023-02-24T04:56:36;8.40;99.90
61979;DHT22;47938;48.176;16.414;2023-02-24T04:59:02;8.30;99.90
61979;DHT22;47938;48.176;16.414;2023-02-24T05:01:28;8.30;99.90
61979;DHT22;47938;48.176;16.414;2023-02-24T05:03:54;8.30;99.90
61979;DHT22;47938;48.176;16.414;2023-02-24T05:06:19;8.30;99.90
61979;DHT22;47938;48.176;16.414;2023-02-24T05:08:45;8.30;99.90
61979;DHT22;47938;48.176;16.414;2023-02-24T05:11:15;8.30;99.90
61979;DHT22;47938;48.176;16.414;2023-02-24T05:13:41;8.30;99.90
61979;DHT22;47938;48.176;16.414;2023-02-24T05:16:08;8.30;99.90
61979;DHT22;47938;48.176;16.414;2023-02-24T05:18:34;8.30;99.90
61979;DHT22;47938;48.176;16.414;2023-02-24T05:21:07;8.30;99.90
61979;DHT22;47938;48.176;16.414;2023-02-24T05:23:36;8.30;99.90
61979;DHT22;47938;48.176;16.414;2023-02-24T05:26:04;8.20;99.90
61979;DHT22;47938;48.176;16.414;2023-02-24T05:28:30;8.30;99.90
61979;DHT22;47938;48.176;16.414;2023-02-24T05:31:08;8.30;99.90
61979;DHT22;47938;48.176;16.414;2023-02-24T05:33:37;8.30;99.90
61979;DHT22;47938;48.176;16.414;2023-02-24T05:36:06;8.20;99.90
61979;DHT22;47938;48.176;16.414;2023-02-24T05:38:31;8.10;99.90
61979;DHT22;47938;48.176;16.414;2023-02-24T05:41:07;8.00;99.90
61979;DHT22;47938;48.176;16.414;2023-02-24T05:43:33;8.00;99.90
61979;DHT22;47938;48.176;16.414;2023-02-24T05:46:00;8.10;99.90
61979;DHT22;47938;48.176;16.414;2023-02-24T05:48:25;8.10;99.90
61979;DHT22;47938;48.176;16.414;2023-02-24T05:50:51;8.10;99.90
61979;DHT22;47938;48.176;16.414;2023-02-24T05:53:17;8.10;99.90
61979;DHT22;47938;48.176;16.414;2023-02-24T05:55:43;8.20;99.90
61979;DHT22;47938;48.176;16.414;2023-02-24T05:58:08;8.20;99.90
61979;DHT22;47938;48.176;16.414;2023-02-24T06:00:34;8.20;99.90
61979;DHT22;47938;48.176;16.414;2023-02-24T06:02:59;8.20;99.90
61979;DHT22;47938;48.176;16.414;2023-02-24T06:05:25;8.30;99.90
61979;DHT22;47938;48.176;16.414;2023-02-24T06:07:55;8.30;99.90
61979;DHT22;47938;48.176;16.414;2023-02-24T06:10:21;8.30;99.90
61979;DHT22;47938;48.176;16.414;2023-02-24T06:12:46;8.30;99.90
61979;DHT22;47938;48.176;16.414;2023-02-24T06:15:12;8.40;99.90
61979;DHT22;47938;48.176;16.414;2023-02-24T06:17:37;8.40;99.90
61979;DHT22;47938;48.176;16.414;2023-02-24T06:20:04;8.30;99.90
61979;DHT22;47938;48.176;16.414;2023-02-24T06:22:30;8.30;99.90
61979;DHT22;47938;48.176;16.414;2023-02-24T06:24:56;8.30;99.90
61979;DHT22;47938;48.176;16.414;2023-02-24T06:27:21;8.30;99.90
61979;DHT22;47938;48.176;16.414;2023-02-24T06:29:52;8.40;99.90
61979;DHT22;47938;48.176;16.414;2023-02-24T06:32:19;8.50;99.90
61979;DHT22;47938;48.176;16.414;2023-02-24T06:34:45;8.60;99.90
61979;DHT22;47938;48.176;16.414;2023-02-24T06:37:12;8.80;99.90
61979;DHT22;47938;48.176;16.414;2023-02-24T06:39:38;9.00;99.90
61979;DHT22;47938;48.176;16.414;2023-02-24T06:42:05;9.20;99.90
61979;DHT22;47938;48.176;16.414;2023-02-24T06:44:32;9.50;99.90
61979;DHT22;47938;48.176;16.414;2023-02-24T06:46:58;9.80;99.90
61979;DHT22;47938;48.176;16.414;2023-02-24T06:49:24;10.00;99.90
61979;DHT22;47938;48.176;16.414;2023-02-24T06:51:50;10.30;98.80
61979;DHT22;47938;48.176;16.414;2023-02-24T06:54:16;10.30;98.10
61979;DHT22;47938;48.176;16.414;2023-02-24T06:56:41;10.40;98.90
61979;DHT22;47938;48.176;16.414;2023-02-24T06:59:07;10.70;98.20
61979;DHT22;47938;48.176;16.414;2023-02-24T07:01:33;11.10;95.70
61979;DHT22;47938;48.176;16.414;2023-02-24T07:03:59;11.50;92.80
61979;DHT22;47938;48.176;16.414;2023-02-24T07:06:25;11.70;90.30
61979;DHT22;47938;48.176;16.414;2023-02-24T07:08:51;12.10;87.80
61979;DHT22;47938;48.176;16.414;2023-02-24T07:11:17;12.30;85.60
61979;DHT22;47938;48.176;16.414;2023-02-24T07:13:45;12.70;81.70
61979;DHT22;47938;48.176;16.414;2023-02-24T07:16:10;13.00;78.00
61979;DHT22;47938;48.176;16.414;2023-02-24T07:18:37;13.20;75.50
61979;DHT22;47938;48.176;16.414;2023-02-24T07:21:03;13.50;71.90
61979;DHT22;47938;48.176;16.414;2023-02-24T07:23:30;13.30;70.90
61979;DHT22;47938;48.176;16.414;2023-02-24T07:25:56;13.50;71.00
61979;DHT22;47938;48.176;16.414;2023-02-24T07:28:22;13.60;75.80
61979;DHT22;47938;48.176;16.414;2023-02-24T07:30:47;13.80;77.10
61979;DHT22;47938;48.176;16.414;2023-02-24T07:33:13;13.50;69.70
61979;DHT22;47938;48.176;16.414;2023-02-24T07:35:38;13.40;69.90
61979;DHT22;47938;48.176;16.414;2023-02-24T07:38:05;13.40;69.60
61979;DHT22;47938;48.176;16.414;2023-02-24T07:40:32;13.40;69.90
61979;DHT22;47938;48.176;16.414;2023-02-24T07:42:59;13.60;68.50
61979;DHT22;47938;48.176;16.414;2023-02-24T07:45:25;13.80;67.20
61979;DHT22;47938;48.176;16.414;2023-02-24T07:47:50;13.80;67.90
61979;DHT22;47938;48.176;16.414;2023-02-24T07:50:16;13.90;66.40
61979;DHT22;47938;48.176;16.414;2023-02-24T07:52:45;14.10;66.10
61979;DHT22;47938;48.176;16.414;2023-02-24T07:55:10;14.20;65.70
61979;DHT22;47938;48.176;16.414;2023-02-24T07:57:36;14.30;65.70
61979;DHT22;47938;48.176;16.414;2023-02-24T08:00:06;14.50;65.50
61979;DHT22;47938;48.176;16.414;2023-02-24T08:02:32;14.60;64.20
61979;DHT22;47938;48.176;16.414;2023-02-24T08:04:57;14.80;63.50
61979;DHT22;47938;48.176;16.414;2023-02-24T08:07:23;14.90;62.90
61979;DHT22;47938;48.176;16.414;2023-02-24T08:09:49;15.00;62.20
61979;DHT22;47938;48.176;16.414;2023-02-24T08:12:16;15.10;62.00
61979;DHT22;47938;48.176;16.414;2023-02-24T08:14:44;15.30;61.00
61979;DHT22;47938;48.176;16.414;2023-02-24T08:17:11;15.50;60.70
61979;DHT22;47938;48.176;16.414;2023-02-24T08:19:37;15.60;60.10
61979;DHT22;47938;48.176;16.414;2023-02-24T08:22:02;15.80;59.00
61979;DHT22;47938;48.176;16.414;2023-02-24T08:24:28;15.80;58.60
61979;DHT22;47938;48.176;16.414;2023-02-24T08:26:55;15.70;58.70
61979;DHT22;47938;48.176;16.414;2023-02-24T08:29:22;15.60;59.20
61979;DHT22;47938;48.176;16.414;2023-02-24T08:31:47;15.50;59.30
61979;DHT22;47938;48.176;16.414;2023-02-24T08:34:13;15.50;59.80
61979;DHT22;47938;48.176;16.414;2023-02-24T08:36:38;15.50;60.90
61979;DHT22;47938;48.176;16.414;2023-02-24T08:39:04;15.50;60.20
61979;DHT22;47938;48.176;16.414;2023-02-24T08:41:30;15.40;60.80
61979;DHT22;47938;48.176;16.414;2023-02-24T08:43:55;15.30;60.40
61979;DHT22;47938;48.176;16.414;2023-02-24T08:46:22;15.30;60.80
61979;DHT22;47938;48.176;16.414;2023-02-24T08:48:54;15.20;61.00
61979;DHT22;47938;48.176;16.414;2023-02-24T08:51:34;15.30;61.90
61979;DHT22;47938;48.176;16.414;2023-02-24T08:54:04;15.30;61.60
61979;DHT22;47938;48.176;16.414;2023-02-24T08:56:31;15.40;62.00
61979;DHT22;47938;48.176;16.414;2023-02-24T08:58:59;15.40;60.90
61979;DHT22;47938;48.176;16.414;2023-02-24T09:01:28;15.30;61.60
61979;DHT22;47938;48.176;16.414;2023-02-24T09:03:57;15.30;61.20
61979;DHT22;47938;48.176;16.414;2023-02-24T09:09:00;15.10;62.70
61979;DHT22;47938;48.176;16.414;2023-02-24T09:11:26;15.00;63.40
61979;DHT22;47938;48.176;16.414;2023-02-24T09:13:51;15.00;63.40
61979;DHT22;47938;48.176;16.414;2023-02-24T09:16:19;15.00;63.10
61979;DHT22;47938;48.176;16.414;2023-02-24T09:18:45;14.90;63.70
61979;DHT22;47938;48.176;16.414;2023-02-24T09:21:12;14.90;63.80
61979;DHT22;47938;48.176;16.414;2023-02-24T09:23:38;15.00;63.70
61979;DHT22;47938;48.176;16.414;2023-02-24T09:26:04;15.00;63.10
61979;DHT22;47938;48.176;16.414;2023-02-24T09:28:31;15.00;62.30
61979;DHT22;47938;48.176;16.414;2023-02-24T09:30:59;15.10;62.20
61979;DHT22;47938;48.176;16.414;2023-02-24T09:33:31;15.20;62.10
61979;DHT22;47938;48.176;16.414;2023-02-24T09:36:02;15.30;62.00
61979;DHT22;47938;48.176;16.414;2023-02-24T09:38:29;15.30;62.10
61979;DHT22;47938;48.176;16.414;2023-02-24T09:40:55;15.30;61.80
61979;DHT22;47938;48.176;16.414;2023-02-24T09:43:24;15.30;61.60
61979;DHT22;47938;48.176;16.414;2023-02-24T09:45:58;15.40;61.40
61979;DHT22;47938;48.176;16.414;2023-02-24T09:48:41;15.50;59.70
61979;DHT22;47938;48.176;16.414;2023-02-24T09:51:13;15.60;59.20
61979;DHT22;47938;48.176;16.414;2023-02-24T09:53:40;15.90;57.70
61979;DHT22;47938;48.176;16.414;2023-02-24T09:56:16;16.20;56.20
61979;DHT22;47938;48.176;16.414;2023-02-24T09:59:09;16.50;55.80
61979;DHT22;47938;48.176;16.414;2023-02-24T10:07:03;16.60;55.90
61979;DHT22;47938;48.176;16.414;2023-02-24T10:14:40;16.80;54.60
61979;DHT22;47938;48.176;16.414;2023-02-24T10:17:16;16.90;53.10
61979;DHT22;47938;48.176;16.414;2023-02-24T10:19:42;17.00;52.90
61979;DHT22;47938;48.176;16.414;2023-02-24T10:22:15;17.20;52.10
61979;DHT22;47938;48.176;16.414;2023-02-24T10:25:02;17.30;51.90
61979;DHT22;47938;48.176;16.414;2023-02-24T10:27:42;17.60;51.50
61979;DHT22;47938;48.176;16.414;2023-02-24T10:30:47;17.70;51.20
61979;DHT22;47938;48.176;16.414;2023-02-24T10:33:03;17.70;50.60
61979;DHT22;47938;48.176;16.414;2023-02-24T10:35:30;17.70;50.50
61979;DHT22;47938;48.176;16.414;2023-02-24T10:37:56;17.80;49.70
61979;DHT22;47938;48.176;16.414;2023-02-24T10:40:21;17.80;49.00
61979;DHT22;47938;48.176;16.414;2023-02-24T10:42:47;17.70;49.10
61979;DHT22;47938;48.176;16.414;2023-02-24T10:45:23;17.80;48.80
61979;DHT22;47938;48.176;16.414;2023-02-24T10:47:57;17.90;48.40
61979;DHT22;47938;48.176;16.414;2023-02-24T10:50:32;17.70;48.30
61979;DHT22;47938;48.176;16.414;2023-02-24T10:53:17;17.60;49.10
61979;DHT22;47938;48.176;16.414;2023-02-24T10:55:46;17.70;48.50
61979;DHT22;47938;48.176;16.414;2023-02-24T10:58:31;17.60;47.90
61979;DHT22;47938;48.176;16.414;2023-02-24T11:01:07;17.60;48.20
61979;DHT22;47938;48.176;16.414;2023-02-24T11:03:33;17.50;47.80
61979;DHT22;47938;48.176;16.414;2023-02-24T11:05:59;17.60;47.60
61979;DHT22;47938;48.176;16.414;2023-02-24T11:08:24;17.60;46.80
61979;DHT22;47938;48.176;16.414;2023-02-24T11:10:50;17.50;47.40
61979;DHT22;47938;48.176;16.414;2023-02-24T11:13:16;17.60;47.40
61979;DHT22;47938;48.176;16.414;2023-02-24T11:18:17;17.60;46.80
61979;DHT22;47938;48.176;16.414;2023-02-24T11:21:08;17.50;47.30
61979;DHT22;47938;48.176;16.414;2023-02-24T11:23:39;17.40;47.70
61979;DHT22;47938;48.176;16.414;2023-02-24T11:26:31;17.20;47.80
61979;DHT22;47938;48.176;16.414;2023-02-24T11:29:32;17.20;47.60
61979;DHT22;47938;48.176;16.414;2023-02-24T11:35:08;17.20;53.20
61979;DHT22;47938;48.176;16.414;2023-02-24T11:37:39;17.20;51.60
61979;DHT22;47938;48.176;16.414;2023-02-24T11:42:47;17.40;49.80
61979;DHT22;47938;48.176;16.414;2023-02-24T11:45:38;17.40;49.20
61979;DHT22;47938;48.176;16.414;2023-02-24T11:48:26;17.40;48.90
61979;DHT22;47938;48.176;16.414;2023-02-24T11:51:12;17.40;47.20
61979;DHT22;47938;48.176;16.414;2023-02-24T11:53:54;17.50;48.00
61979;DHT22;47938;48.176;16.414;2023-02-24T12:05:04;17.40;44.90
61979;DHT22;47938;48.176;16.414;2023-02-24T12:07:38;17.50;43.70
61979;DHT22;47938;48.176;16.414;2023-02-24T12:12:50;17.50;43.30
61979;DHT22;47938;48.176;16.414;2023-02-24T12:18:21;17.50;43.40
61979;DHT22;47938;48.176;16.414;2023-02-24T12:23:55;17.60;43.00
61979;DHT22;47938;48.176;16.414;2023-02-24T12:40:21;17.60;46.60
61979;DHT22;47938;48.176;16.414;2023-02-24T12:45:51;17.50;47.30
61979;DHT22;47938;48.176;16.414;2023-02-24T12:51:26;17.50;47.40
61979;DHT22;47938;48.176;16.414;2023-02-24T12:59:40;17.60;47.60
61979;DHT22;47938;48.176;16.414;2023-02-24T13:05:09;17.60;46.40
61979;DHT22;47938;48.176;16.414;2023-02-24T13:13:50;17.40;46.10
61979;DHT22;47938;48.176;16.414;2023-02-24T13:16:37;17.30;46.40
61979;DHT22;47938;48.176;16.414;2023-02-24T13:22:06;17.20;46.30
61979;DHT22;47938;48.176;16.414;2023-02-24T13:24:33;17.10;46.00
61979;DHT22;47938;48.176;16.414;2023-02-24T13:29:59;17.00;46.60
61979;DHT22;47938;48.176;16.414;2023-02-24T14:45:26;15.70;48.10
61979;DHT22;47938;48.176;16.414;2023-02-24T14:48:42;15.60;48.80
61979;DHT22;47938;48.176;16.414;2023-02-24T14:51:33;15.50;48.80
61979;DHT22;47938;48.176;16.414;2023-02-24T14:54:27;15.60;49.00
61979;DHT22;47938;48.176;16.414;2023-02-24T14:57:20;15.60;48.60
61979;DHT22;47938;48.176;16.414;2023-02-24T15:00:17;15.60;48.80
61979;DHT22;47938;48.176;16.414;2023-02-24T15:06:31;15.60;48.90
61979;DHT22;47938;48.176;16.414;2023-02-24T15:09:20;15.60;49.00
61979;DHT22;47938;48.176;16.414;2023-02-24T15:12:33;15.60;49.10
61979;DHT22;47938;48.176;16.414;2023-02-24T15:15:25;15.50;49.30
61979;DHT22;47938;48.176;16.414;2023-02-24T15:18:26;15.40;49.60
61979;DHT22;47938;48.176;16.414;2023-02-24T15:21:22;15.30;50.20
61979;DHT22;47938;48.176;16.414;2023-02-24T15:24:24;15.20;50.40
61979;DHT22;47938;48.176;16.414;2023-02-24T15:30:06;15.00;50.90
61979;DHT22;47938;48.176;16.414;2023-02-24T15:33:04;14.90;51.20
61979;DHT22;47938;48.176;16.414;2023-02-24T15:35:56;14.70;51.90
61979;DHT22;47938;48.176;16.414;2023-02-24T15:38:43;14.60;52.40
61979;DHT22;47938;48.176;16.414;2023-02-24T15:41:41;14.70;52.40
61979;DHT22;47938;48.176;16.414;2023-02-24T15:44:32;14.70;52.50
61979;DHT22;47938;48.176;16.414;2023-02-24T15:47:22;14.70;52.60
61979;DHT22;47938;48.176;16.414;2023-02-24T15:50:09;14.70;52.70
61979;DHT22;47938;48.176;16.414;2023-02-24T15:52:58;14.70;52.50
61979;DHT22;47938;48.176;16.414;2023-02-24T15:55:45;14.70;53.70
61979;DHT22;47938;48.176;16.414;2023-02-24T15:58:31;14.60;53.10
61979;DHT22;47938;48.176;16.414;2023-02-24T16:01:17;14.50;53.20
61979;DHT22;47938;48.176;16.414;2023-02-24T16:04:03;14.50;53.60
61979;DHT22;47938;48.176;16.414;2023-02-24T16:06:52;14.30;53.80
61979;DHT22;47938;48.176;16.414;2023-02-24T16:09:39;14.20;54.10
61979;DHT22;47938;48.176;16.414;2023-02-24T16:12:38;14.10;54.40
61979;DHT22;47938;48.176;16.414;2023-02-24T16:15:33;14.10;54.60
61979;DHT22;47938;48.176;16.414;2023-02-24T16:18:21;14.00;55.10
61979;DHT22;47938;48.176;16.414;2023-02-24T16:21:09;14.10;55.30
61979;DHT22;47938;48.176;16.414;2023-02-24T16:23:55;14.10;54.90
61979;DHT22;47938;48.176;16.414;2023-02-24T16:26:41;14.10;54.80
61979;DHT22;47938;48.176;16.414;2023-02-24T16:29:27;14.00;55.00
61979;DHT22;47938;48.176;16.414;2023-02-24T16:32:13;14.00;54.90
61979;DHT22;47938;48.176;16.414;2023-02-24T16:34:59;14.00;55.00
61979;DHT22;47938;48.176;16.414;2023-02-24T16:37:46;13.90;55.10
61979;DHT22;47938;48.176;16.414;2023-02-24T16:40:34;13.90;55.20
61979;DHT22;47938;48.176;16.414;2023-02-24T16:43:20;13.80;55.40
61979;DHT22;47938;48.176;16.414;2023-02-24T16:46:12;13.80;55.70
61979;DHT22;47938;48.176;16.414;2023-02-24T16:48:58;13.70;55.80
61979;DHT22;47938;48.176;16.414;2023-02-24T16:51:44;13.60;56.00
61979;DHT22;47938;48.176;16.414;2023-02-24T16:54:30;13.60;56.30
61979;DHT22;47938;48.176;16.414;2023-02-24T16:57:16;13.60;56.40
61979;DHT22;47938;48.176;16.414;2023-02-24T17:00:02;13.60;56.50
61979;DHT22;47938;48.176;16.414;2023-02-24T17:02:49;13.60;56.60
61979;DHT22;47938;48.176;16.414;2023-02-24T17:05:35;13.50;56.60
61979;DHT22;47938;48.176;16.414;2023-02-24T17:08:21;13.50;56.80
61979;DHT22;47938;48.176;16.414;2023-02-24T17:11:11;13.50;57.00
61979;DHT22;47938;48.176;16.414;2023-02-24T17:13:58;13.40;57.20
61979;DHT22;47938;48.176;16.414;2023-02-24T17:16:44;13.40;57.40
61979;DHT22;47938;48.176;16.414;2023-02-24T17:19:30;13.40;57.30
61979;DHT22;47938;48.176;16.414;2023-02-24T17:22:16;13.40;57.60
61979;DHT22;47938;48.176;16.414;2023-02-24T17:25:03;13.40;58.00
61979;DHT22;47938;48.176;16.414;2023-02-24T17:27:49;13.30;58.40
61979;DHT22;47938;48.176;16.414;2023-02-24T17:30:36;13.30;58.70
61979;DHT22;47938;48.176;16.414;2023-02-24T17:33:22;13.30;58.80
61979;DHT22;47938;48.176;16.414;2023-02-24T17:36:08;13.30;59.00
61979;DHT22;47938;48.176;16.414;2023-02-24T17:38:54;13.30;58.80
61979;DHT22;47938;48.176;16.414;2023-02-24T17:41:40;13.20;58.40
61979;DHT22;47938;48.176;16.414;2023-02-24T17:44:26;13.20;58.30
61979;DHT22;47938;48.176;16.414;2023-02-24T17:47:12;13.20;58.00
61979;DHT22;47938;48.176;16.414;2023-02-24T17:49:58;13.20;58.10
61979;DHT22;47938;48.176;16.414;2023-02-24T17:52:44;13.20;58.50
61979;DHT22;47938;48.176;16.414;2023-02-24T17:55:30;13.30;58.80
61979;DHT22;47938;48.176;16.414;2023-02-24T17:58:16;13.20;58.20
61979;DHT22;47938;48.176;16.414;2023-02-24T18:01:03;13.20;58.30
61979;DHT22;47938;48.176;16.414;2023-02-24T18:03:49;13.20;58.50
61979;DHT22;47938;48.176;16.414;2023-02-24T18:06:36;13.10;58.90
61979;DHT22;47938;48.176;16.414;2023-02-24T18:09:22;13.10;59.20
61979;DHT22;47938;48.176;16.414;2023-02-24T18:12:08;13.10;59.30
61979;DHT22;47938;48.176;16.414;2023-02-24T18:14:55;13.10;59.30
61979;DHT22;47938;48.176;16.414;2023-02-24T18:17:41;13.00;59.30
61979;DHT22;47938;48.176;16.414;2023-02-24T18:20:27;13.10;59.30
61979;DHT22;47938;48.176;16.414;2023-02-24T18:23:13;13.10;59.30
61979;DHT22;47938;48.176;16.414;2023-02-24T18:26:02;13.10;59.00
61979;DHT22;47938;48.176;16.414;2023-02-24T18:28:51;13.00;59.70
61979;DHT22;47938;48.176;16.414;2023-02-24T18:31:38;13.00;59.40
61979;DHT22;47938;48.176;16.414;2023-02-24T18:34:24;13.00;59.60
61979;DHT22;47938;48.176;16.414;2023-02-24T18:37:10;12.90;59.80
61979;DHT22;47938;48.176;16.414;2023-02-24T18:39:56;12.90;60.10
61979;DHT22;47938;48.176;16.414;2023-02-24T18:42:42;12.90;60.00
61979;DHT22;47938;48.176;16.414;2023-02-24T18:45:29;12.80;60.10
61979;DHT22;47938;48.176;16.414;2023-02-24T18:48:15;12.80;60.40
61979;DHT22;47938;48.176;16.414;2023-02-24T18:51:01;12.80;60.30
61979;DHT22;47938;48.176;16.414;2023-02-24T18:53:48;12.80;60.40
61979;DHT22;47938;48.176;16.414;2023-02-24T18:56:34;12.80;60.20
61979;DHT22;47938;48.176;16.414;2023-02-24T18:59:20;12.80;60.30
61979;DHT22;47938;48.176;16.414;2023-02-24T19:02:08;12.80;60.30
61979;DHT22;47938;48.176;16.414;2023-02-24T19:04:55;12.80;60.20
61979;DHT22;47938;48.176;16.414;2023-02-24T19:07:41;12.80;60.20
61979;DHT22;47938;48.176;16.414;2023-02-24T19:10:27;12.80;60.30
61979;DHT22;47938;48.176;16.414;2023-02-24T19:13:14;12.80;60.40
61979;DHT22;47938;48.176;16.414;2023-02-24T19:16:00;12.80;60.20
61979;DHT22;47938;48.176;16.414;2023-02-24T19:18:53;12.80;60.40
61979;DHT22;47938;48.176;16.414;2023-02-24T19:21:41;12.70;60.60
61979;DHT22;47938;48.176;16.414;2023-02-24T19:24:29;12.70;60.90
61979;DHT22;47938;48.176;16.414;2023-02-24T19:27:15;12.60;60.90